sensor_id;sensor_type;location;lat;lon;timestamp;temperature;humidity
8820;DHT22;4446;50.876;4.736;2022-08-23T00:01:17;17.30;99.90
8820;DHT22;4446;50.876;4.736;2022-08-23T00:03:45;17.30;99.90
8820;DHT22;4446;50.876;4.736;2022-08-23T00:06:12;17.30;99.90
8820;DHT22;4446;50.876;4.736;2022-08-23T00:08:39;17.30;99.90
8820;DHT22;4446;50.876;4.736;2022-08-23T00:11:25;17.20;99.90
8820;DHT22;4446;50.876;4.736;2022-08-23T00:13:52;17.20;99.90
8820;DHT22;4446;50.876;4.736;2022-08-23T00:16:19;17.20;99.90
8820;DHT22;4446;50.876;4.736;2022-08-23T00:18:47;17.10;99.90
8820;DHT22;4446;50.876;4.736;2022-08-23T00:21:14;17.10;99.90
8820;DHT22;4446;50.876;4.736;2022-08-23T00:23:41;17.10;99.90
8820;DHT22;4446;50.876;4.736;2022-08-23T00:26:08;17.10;99.90
8820;DHT22;4446;50.876;4.736;2022-08-23T00:28:37;17.00;99.90
8820;DHT22;4446;50.876;4.736;2022-08-23T00:31:05;17.10;99.90
8820;DHT22;4446;50.876;4.736;2022-08-23T00:33:32;17.10;99.90
8820;DHT22;4446;50.876;4.736;2022-08-23T00:35:59;17.10;99.90
8820;DHT22;4446;50.876;4.736;2022-08-23T00:38:27;17.20;99.90
8820;DHT22;4446;50.876;4.736;2022-08-23T00:40:54;17.20;99.90
8820;DHT22;4446;50.876;4.736;2022-08-23T00:43:25;17.20;99.90
8820;DHT22;4446;50.876;4.736;2022-08-23T00:46:18;17.30;99.90
8820;DHT22;4446;50.876;4.736;2022-08-23T00:49:08;17.30;99.90
8820;DHT22;4446;50.876;4.736;2022-08-23T00:51:41;17.30;99.90
8820;DHT22;4446;50.876;4.736;2022-08-23T00:54:12;17.40;99.90
8820;DHT22;4446;50.876;4.736;2022-08-23T00:56:40;17.40;99.90
8820;DHT22;4446;50.876;4.736;2022-08-23T00:59:08;17.40;99.90
8820;DHT22;4446;50.876;4.736;2022-08-23T01:01:37;17.50;99.90
8820;DHT22;4446;50.876;4.736;2022-08-23T01:04:04;17.50;99.90
8820;DHT22;4446;50.876;4.736;2022-08-23T01:06:34;17.60;99.90
8820;DHT22;4446;50.876;4.736;2022-08-23T01:09:06;17.60;99.90
8820;DHT22;4446;50.876;4.736;2022-08-23T01:11:37;17.50;99.90
8820;DHT22;4446;50.876;4.736;2022-08-23T01:14:09;17.50;99.90
8820;DHT22;4446;50.876;4.736;2022-08-23T01:16:42;17.50;99.90
8820;DHT22;4446;50.876;4.736;2022-08-23T01:19:15;17.40;99.90
8820;DHT22;4446;50.876;4.736;2022-08-23T01:21:48;17.40;99.90
8820;DHT22;4446;50.876;4.736;2022-08-23T01:24:19;17.30;99.90
8820;DHT22;4446;50.876;4.736;2022-08-23T01:26:46;17.30;99.90
8820;DHT22;4446;50.876;4.736;2022-08-23T01:29:13;17.20;99.90
8820;DHT22;4446;50.876;4.736;2022-08-23T01:31:42;17.20;99.90
8820;DHT22;4446;50.876;4.736;2022-08-23T01:34:11;17.10;99.90
8820;DHT22;4446;50.876;4.736;2022-08-23T01:36:39;17.10;99.90
8820;DHT22;4446;50.876;4.736;2022-08-23T01:39:08;17.10;99.90
8820;DHT22;4446;50.876;4.736;2022-08-23T01:41:37;17.00;99.90
8820;DHT22;4446;50.876;4.736;2022-08-23T01:44:05;17.00;99.90
8820;DHT22;4446;50.876;4.736;2022-08-23T01:46:33;17.10;99.90
8820;DHT22;4446;50.876;4.736;2022-08-23T01:49:01;17.20;99.90
8820;DHT22;4446;50.876;4.736;2022-08-23T01:51:29;17.20;99.90
8820;DHT22;4446;50.876;4.736;2022-08-23T01:53:56;17.10;99.90
8820;DHT22;4446;50.876;4.736;2022-08-23T01:56:23;17.10;99.90
8820;DHT22;4446;50.876;4.736;2022-08-23T01:58:52;17.00;99.90
8820;DHT22;4446;50.876;4.736;2022-08-23T02:01:19;17.00;99.90
8820;DHT22;4446;50.876;4.736;2022-08-23T02:03:46;17.00;99.90
8820;DHT22;4446;50.876;4.736;2022-08-23T02:06:13;16.90;99.90
8820;DHT22;4446;50.876;4.736;2022-08-23T02:08:40;16.90;99.90
8820;DHT22;4446;50.876;4.736;2022-08-23T02:11:25;16.90;99.90
8820;DHT22;4446;50.876;4.736;2022-08-23T02:13:59;16.90;99.90
8820;DHT22;4446;50.876;4.736;2022-08-23T02:16:28;16.80;99.90
8820;DHT22;4446;50.876;4.736;2022-08-23T02:18:56;16.80;99.90
8820;DHT22;4446;50.876;4.736;2022-08-23T02:21:23;16.80;99.90
8820;DHT22;4446;50.876;4.736;2022-08-23T02:23:51;16.70;99.90
8820;DHT22;4446;50.876;4.736;2022-08-23T02:26:18;16.80;99.90
8820;DHT22;4446;50.876;4.736;2022-08-23T02:28:48;16.80;99.90
8820;DHT22;4446;50.876;4.736;2022-08-23T02:31:17;16.70;99.90
8820;DHT22;4446;50.876;4.736;2022-08-23T02:33:44;16.70;99.90
8820;DHT22;4446;50.876;4.736;2022-08-23T02:36:11;16.70;99.90
8820;DHT22;4446;50.876;4.736;2022-08-23T02:38:38;16.70;99.90
8820;DHT22;4446;50.876;4.736;2022-08-23T02:41:06;16.70;99.90
8820;DHT22;4446;50.876;4.736;2022-08-23T02:43:33;16.70;99.90
8820;DHT22;4446;50.876;4.736;2022-08-23T02:46:03;16.70;99.90
8820;DHT22;4446;50.876;4.736;2022-08-23T02:48:33;16.60;99.90
8820;DHT22;4446;50.876;4.736;2022-08-23T02:51:01;16.60;99.90
8820;DHT22;4446;50.876;4.736;2022-08-23T02:53:29;16.60;99.90
8820;DHT22;4446;50.876;4.736;2022-08-23T02:55:56;16.60;99.90
8820;DHT22;4446;50.876;4.736;2022-08-23T02:58:24;16.60;99.90
8820;DHT22;4446;50.876;4.736;2022-08-23T03:00:52;16.60;99.90
8820;DHT22;4446;50.876;4.736;2022-08-23T03:03:20;16.50;99.90
8820;DHT22;4446;50.876;4.736;2022-08-23T03:05:48;16.50;99.90
8820;DHT22;4446;50.876;4.736;2022-08-23T03:08:16;16.50;99.90
8820;DHT22;4446;50.876;4.736;2022-08-23T03:10:44;16.40;99.90
8820;DHT22;4446;50.876;4.736;2022-08-23T03:13:11;16.40;99.90
8820;DHT22;4446;50.876;4.736;2022-08-23T03:15:39;16.30;99.90
8820;DHT22;4446;50.876;4.736;2022-08-23T03:18:06;16.30;99.90
8820;DHT22;4446;50.876;4.736;2022-08-23T03:20:35;16.30;99.90
8820;DHT22;4446;50.876;4.736;2022-08-23T03:23:04;16.30;99.90
8820;DHT22;4446;50.876;4.736;2022-08-23T03:25:31;16.20;99.90
8820;DHT22;4446;50.876;4.736;2022-08-23T03:28:01;16.20;99.90
8820;DHT22;4446;50.876;4.736;2022-08-23T03:30:29;16.20;99.90
8820;DHT22;4446;50.876;4.736;2022-08-23T03:32:56;16.20;99.90
8820;DHT22;4446;50.876;4.736;2022-08-23T03:35:25;16.20;99.90
8820;DHT22;4446;50.876;4.736;2022-08-23T03:37:52;16.20;99.90
8820;DHT22;4446;50.876;4.736;2022-08-23T03:40:20;16.10;99.90
8820;DHT22;4446;50.876;4.736;2022-08-23T03:42:48;16.10;99.90
8820;DHT22;4446;50.876;4.736;2022-08-23T03:45:15;16.10;99.90
8820;DHT22;4446;50.876;4.736;2022-08-23T03:47:42;16.00;99.90
8820;DHT22;4446;50.876;4.736;2022-08-23T03:50:09;16.00;99.90
8820;DHT22;4446;50.876;4.736;2022-08-23T03:52:37;16.00;99.90
8820;DHT22;4446;50.876;4.736;2022-08-23T03:55:04;16.00;99.90
8820;DHT22;4446;50.876;4.736;2022-08-23T03:57:33;16.00;99.90
8820;DHT22;4446;50.876;4.736;2022-08-23T04:00:00;16.00;99.90
8820;DHT22;4446;50.876;4.736;2022-08-23T04:02:27;16.00;99.90
8820;DHT22;4446;50.876;4.736;2022-08-23T04:04:54;16.00;99.90
8820;DHT22;4446;50.876;4.736;2022-08-23T04:07:22;16.00;99.90
8820;DHT22;4446;50.876;4.736;2022-08-23T04:09:49;16.00;99.90
8820;DHT22;4446;50.876;4.736;2022-08-23T04:12:16;16.00;99.90
8820;DHT22;4446;50.876;4.736;2022-08-23T04:14:45;15.90;99.90
8820;DHT22;4446;50.876;4.736;2022-08-23T04:17:12;15.90;99.90
8820;DHT22;4446;50.876;4.736;2022-08-23T04:19:40;15.80;99.90
8820;DHT22;4446;50.876;4.736;2022-08-23T04:22:11;15.80;99.90
8820;DHT22;4446;50.876;4.736;2022-08-23T04:24:38;15.80;99.90
8820;DHT22;4446;50.876;4.736;2022-08-23T04:27:05;15.80;99.90
8820;DHT22;4446;50.876;4.736;2022-08-23T04:29:33;15.80;99.90
8820;DHT22;4446;50.876;4.736;2022-08-23T04:32:02;15.80;99.90
8820;DHT22;4446;50.876;4.736;2022-08-23T04:34:29;15.80;99.90
8820;DHT22;4446;50.876;4.736;2022-08-23T04:36:57;15.70;99.90
8820;DHT22;4446;50.876;4.736;2022-08-23T04:39:24;15.70;99.90
8820;DHT22;4446;50.876;4.736;2022-08-23T04:41:51;15.70;99.90
8820;DHT22;4446;50.876;4.736;2022-08-23T04:44:36;15.70;99.90
8820;DHT22;4446;50.876;4.736;2022-08-23T04:47:04;15.70;99.90
8820;DHT22;4446;50.876;4.736;2022-08-23T04:49:31;15.70;99.90
8820;DHT22;4446;50.876;4.736;2022-08-23T04:51:58;15.80;99.90
8820;DHT22;4446;50.876;4.736;2022-08-23T04:54:26;15.90;99.90
8820;DHT22;4446;50.876;4.736;2022-08-23T04:56:54;16.00;99.90
8820;DHT22;4446;50.876;4.736;2022-08-23T04:59:21;16.10;99.90
8820;DHT22;4446;50.876;4.736;2022-08-23T05:01:48;16.20;99.90
8820;DHT22;4446;50.876;4.736;2022-08-23T05:04:17;16.30;99.90
8820;DHT22;4446;50.876;4.736;2022-08-23T05:06:45;16.40;99.90
8820;DHT22;4446;50.876;4.736;2022-08-23T05:09:12;16.60;99.90
8820;DHT22;4446;50.876;4.736;2022-08-23T05:11:39;16.70;99.90
8820;DHT22;4446;50.876;4.736;2022-08-23T05:14:06;16.70;99.90
8820;DHT22;4446;50.876;4.736;2022-08-23T05:16:33;16.80;99.90
8820;DHT22;4446;50.876;4.736;2022-08-23T05:19:00;16.80;99.90
8820;DHT22;4446;50.876;4.736;2022-08-23T05:21:29;16.80;99.90
8820;DHT22;4446;50.876;4.736;2022-08-23T05:23:56;16.80;99.90
8820;DHT22;4446;50.876;4.736;2022-08-23T05:26:23;16.80;99.90
8820;DHT22;4446;50.876;4.736;2022-08-23T05:28:50;16.80;99.90
8820;DHT22;4446;50.876;4.736;2022-08-23T05:31:20;16.90;99.90
8820;DHT22;4446;50.876;4.736;2022-08-23T05:33:48;16.80;99.90
8820;DHT22;4446;50.876;4.736;2022-08-23T05:36:16;16.80;99.90
8820;DHT22;4446;50.876;4.736;2022-08-23T05:38:45;16.80;99.90
8820;DHT22;4446;50.876;4.736;2022-08-23T05:41:13;16.80;99.90
8820;DHT22;4446;50.876;4.736;2022-08-23T05:43:41;16.80;99.90
8820;DHT22;4446;50.876;4.736;2022-08-23T05:46:10;16.70;99.90
8820;DHT22;4446;50.876;4.736;2022-08-23T05:48:39;16.70;99.90
8820;DHT22;4446;50.876;4.736;2022-08-23T05:51:08;16.70;99.90
8820;DHT22;4446;50.876;4.736;2022-08-23T05:53:39;16.70;99.90
8820;DHT22;4446;50.876;4.736;2022-08-23T05:56:12;16.80;99.90
8820;DHT22;4446;50.876;4.736;2022-08-23T05:58:39;16.80;99.90
8820;DHT22;4446;50.876;4.736;2022-08-23T06:01:07;16.90;99.90
8820;DHT22;4446;50.876;4.736;2022-08-23T06:03:34;17.00;99.90
8820;DHT22;4446;50.876;4.736;2022-08-23T06:06:02;17.10;99.90
8820;DHT22;4446;50.876;4.736;2022-08-23T06:08:32;17.20;99.90
8820;DHT22;4446;50.876;4.736;2022-08-23T06:11:01;17.20;99.90
8820;DHT22;4446;50.876;4.736;2022-08-23T06:13:31;17.30;99.90
8820;DHT22;4446;50.876;4.736;2022-08-23T06:15:58;17.40;99.90
8820;DHT22;4446;50.876;4.736;2022-08-23T06:18:26;17.50;99.90
8820;DHT22;4446;50.876;4.736;2022-08-23T06:21:00;17.60;99.90
8820;DHT22;4446;50.876;4.736;2022-08-23T06:23:27;17.70;99.90
8820;DHT22;4446;50.876;4.736;2022-08-23T06:25:55;17.80;99.90
8820;DHT22;4446;50.876;4.736;2022-08-23T06:28:22;17.90;99.90
8820;DHT22;4446;50.876;4.736;2022-08-23T06:30:54;18.00;99.90
8820;DHT22;4446;50.876;4.736;2022-08-23T06:33:22;18.20;99.90
8820;DHT22;4446;50.876;4.736;2022-08-23T06:36:00;18.30;99.90
8820;DHT22;4446;50.876;4.736;2022-08-23T06:38:27;18.40;99.90
8820;DHT22;4446;50.876;4.736;2022-08-23T06:40:58;18.50;99.90
8820;DHT22;4446;50.876;4.736;2022-08-23T06:43:26;18.60;99.90
8820;DHT22;4446;50.876;4.736;2022-08-23T06:46:07;18.70;99.90
8820;DHT22;4446;50.876;4.736;2022-08-23T06:48:34;18.80;99.90
8820;DHT22;4446;50.876;4.736;2022-08-23T06:51:07;19.00;99.90
8820;DHT22;4446;50.876;4.736;2022-08-23T06:53:34;19.10;99.90
8820;DHT22;4446;50.876;4.736;2022-08-23T06:56:02;19.20;99.90
8820;DHT22;4446;50.876;4.736;2022-08-23T06:58:29;19.40;99.90
8820;DHT22;4446;50.876;4.736;2022-08-23T07:01:08;19.50;99.90
8820;DHT22;4446;50.876;4.736;2022-08-23T07:03:35;19.70;99.90
8820;DHT22;4446;50.876;4.736;2022-08-23T07:06:02;19.80;99.90
8820;DHT22;4446;50.876;4.736;2022-08-23T07:08:29;19.90;99.90
8820;DHT22;4446;50.876;4.736;2022-08-23T07:10:56;20.10;99.90
8820;DHT22;4446;50.876;4.736;2022-08-23T07:13:23;20.20;99.90
8820;DHT22;4446;50.876;4.736;2022-08-23T07:15:50;20.40;99.90
8820;DHT22;4446;50.876;4.736;2022-08-23T07:18:18;20.50;99.90
8820;DHT22;4446;50.876;4.736;2022-08-23T07:20:45;20.70;99.90
8820;DHT22;4446;50.876;4.736;2022-08-23T07:23:13;20.80;99.90
8820;DHT22;4446;50.876;4.736;2022-08-23T07:25:42;21.00;99.90
8820;DHT22;4446;50.876;4.736;2022-08-23T07:28:09;21.20;99.90
8820;DHT22;4446;50.876;4.736;2022-08-23T07:30:36;21.30;99.90
8820;DHT22;4446;50.876;4.736;2022-08-23T07:33:03;21.40;99.90
8820;DHT22;4446;50.876;4.736;2022-08-23T07:35:32;21.60;99.90
8820;DHT22;4446;50.876;4.736;2022-08-23T07:37:59;21.60;99.90
8820;DHT22;4446;50.876;4.736;2022-08-23T07:40:27;21.70;99.90
8820;DHT22;4446;50.876;4.736;2022-08-23T07:42:55;21.80;99.90
8820;DHT22;4446;50.876;4.736;2022-08-23T07:45:22;21.90;99.90
8820;DHT22;4446;50.876;4.736;2022-08-23T07:47:49;21.90;99.90
8820;DHT22;4446;50.876;4.736;2022-08-23T07:50:16;22.00;99.90
8820;DHT22;4446;50.876;4.736;2022-08-23T07:52:45;22.10;99.90
8820;DHT22;4446;50.876;4.736;2022-08-23T07:55:12;22.20;99.90
8820;DHT22;4446;50.876;4.736;2022-08-23T07:57:39;22.20;99.90
8820;DHT22;4446;50.876;4.736;2022-08-23T08:00:07;22.30;99.90
8820;DHT22;4446;50.876;4.736;2022-08-23T08:02:35;22.40;99.90
8820;DHT22;4446;50.876;4.736;2022-08-23T08:05:02;22.50;99.90
8820;DHT22;4446;50.876;4.736;2022-08-23T08:07:29;22.60;99.90
8820;DHT22;4446;50.876;4.736;2022-08-23T08:09:58;22.70;99.90
8820;DHT22;4446;50.876;4.736;2022-08-23T08:12:27;22.80;99.90
8820;DHT22;4446;50.876;4.736;2022-08-23T08:14:54;22.90;99.90
8820;DHT22;4446;50.876;4.736;2022-08-23T08:17:21;23.00;99.90
8820;DHT22;4446;50.876;4.736;2022-08-23T08:19:48;23.10;99.90
8820;DHT22;4446;50.876;4.736;2022-08-23T08:22:15;23.20;99.90
8820;DHT22;4446;50.876;4.736;2022-08-23T08:24:42;23.30;99.90
8820;DHT22;4446;50.876;4.736;2022-08-23T08:27:11;23.40;99.90
8820;DHT22;4446;50.876;4.736;2022-08-23T08:29:40;23.50;99.90
8820;DHT22;4446;50.876;4.736;2022-08-23T08:32:08;23.60;99.90
8820;DHT22;4446;50.876;4.736;2022-08-23T08:34:35;23.70;99.90
8820;DHT22;4446;50.876;4.736;2022-08-23T08:37:03;23.70;99.90
8820;DHT22;4446;50.876;4.736;2022-08-23T08:39:31;23.80;99.90
8820;DHT22;4446;50.876;4.736;2022-08-23T08:42:08;23.90;99.90
8820;DHT22;4446;50.876;4.736;2022-08-23T08:44:46;24.00;99.90
8820;DHT22;4446;50.876;4.736;2022-08-23T08:47:19;24.10;99.90
8820;DHT22;4446;50.876;4.736;2022-08-23T08:49:50;24.30;99.90
8820;DHT22;4446;50.876;4.736;2022-08-23T08:52:23;24.30;99.90
8820;DHT22;4446;50.876;4.736;2022-08-23T08:54:58;24.40;99.90
8820;DHT22;4446;50.876;4.736;2022-08-23T08:57:26;24.50;99.90
8820;DHT22;4446;50.876;4.736;2022-08-23T08:59:59;24.60;99.90
8820;DHT22;4446;50.876;4.736;2022-08-23T09:02:30;24.80;99.90
8820;DHT22;4446;50.876;4.736;2022-08-23T09:04:59;24.90;99.90
8820;DHT22;4446;50.876;4.736;2022-08-23T09:07:32;24.90;99.90
8820;DHT22;4446;50.876;4.736;2022-08-23T09:10:33;24.90;99.90
8820;DHT22;4446;50.876;4.736;2022-08-23T09:13:19;25.10;99.90
8820;DHT22;4446;50.876;4.736;2022-08-23T09:15:56;25.30;99.90
8820;DHT22;4446;50.876;4.736;2022-08-23T09:18:31;25.30;99.90
8820;DHT22;4446;50.876;4.736;2022-08-23T09:21:01;25.50;99.90
8820;DHT22;4446;50.876;4.736;2022-08-23T09:23:32;25.50;99.90
8820;DHT22;4446;50.876;4.736;2022-08-23T09:26:13;25.60;99.90
8820;DHT22;4446;50.876;4.736;2022-08-23T09:28:42;25.70;99.90
8820;DHT22;4446;50.876;4.736;2022-08-23T09:31:36;25.80;99.90
8820;DHT22;4446;50.876;4.736;2022-08-23T09:34:04;25.90;99.90
8820;DHT22;4446;50.876;4.736;2022-08-23T09:36:33;26.00;99.90
8820;DHT22;4446;50.876;4.736;2022-08-23T09:39:06;26.10;99.90
8820;DHT22;4446;50.876;4.736;2022-08-23T09:41:36;26.10;99.90
8820;DHT22;4446;50.876;4.736;2022-08-23T09:44:06;26.20;99.90
8820;DHT22;4446;50.876;4.736;2022-08-23T09:46:36;26.20;99.90
8820;DHT22;4446;50.876;4.736;2022-08-23T09:49:22;26.20;99.90
8820;DHT22;4446;50.876;4.736;2022-08-23T09:51:50;26.10;99.90
8820;DHT22;4446;50.876;4.736;2022-08-23T09:54:19;26.00;99.90
8820;DHT22;4446;50.876;4.736;2022-08-23T09:56:51;26.00;99.90
8820;DHT22;4446;50.876;4.736;2022-08-23T09:59:28;26.20;99.90
8820;DHT22;4446;50.876;4.736;2022-08-23T10:01:59;26.30;99.90
8820;DHT22;4446;50.876;4.736;2022-08-23T10:04:37;26.20;99.90
8820;DHT22;4446;50.876;4.736;2022-08-23T10:07:22;26.10;99.90
8820;DHT22;4446;50.876;4.736;2022-08-23T10:09:50;26.10;99.90
8820;DHT22;4446;50.876;4.736;2022-08-23T10:12:17;26.30;99.90
8820;DHT22;4446;50.876;4.736;2022-08-23T10:14:44;26.60;99.90
8820;DHT22;4446;50.876;4.736;2022-08-23T10:17:20;26.90;99.90
8820;DHT22;4446;50.876;4.736;2022-08-23T10:19:56;27.20;99.90
8820;DHT22;4446;50.876;4.736;2022-08-23T10:22:28;27.30;99.90
8820;DHT22;4446;50.876;4.736;2022-08-23T10:25:07;27.50;99.90
8820;DHT22;4446;50.876;4.736;2022-08-23T10:27:40;27.60;99.90
8820;DHT22;4446;50.876;4.736;2022-08-23T10:30:34;28.00;99.90
8820;DHT22;4446;50.876;4.736;2022-08-23T10:33:12;28.40;99.90
8820;DHT22;4446;50.876;4.736;2022-08-23T10:35:48;28.50;99.90
8820;DHT22;4446;50.876;4.736;2022-08-23T10:38:35;28.50;99.90
8820;DHT22;4446;50.876;4.736;2022-08-23T10:41:26;28.40;99.90
8820;DHT22;4446;50.876;4.736;2022-08-23T10:44:02;28.00;99.90
8820;DHT22;4446;50.876;4.736;2022-08-23T10:46:38;27.80;99.90
8820;DHT22;4446;50.876;4.736;2022-08-23T10:49:10;27.80;99.90
8820;DHT22;4446;50.876;4.736;2022-08-23T10:51:42;27.60;99.90
8820;DHT22;4446;50.876;4.736;2022-08-23T10:54:14;27.20;99.90
8820;DHT22;4446;50.876;4.736;2022-08-23T10:56:43;27.20;99.90
8820;DHT22;4446;50.876;4.736;2022-08-23T10:59:12;27.20;99.90
8820;DHT22;4446;50.876;4.736;2022-08-23T11:01:44;27.10;99.90
8820;DHT22;4446;50.876;4.736;2022-08-23T11:04:21;27.30;99.90
8820;DHT22;4446;50.876;4.736;2022-08-23T11:06:51;27.40;99.90
8820;DHT22;4446;50.876;4.736;2022-08-23T11:09:46;27.60;99.90
8820;DHT22;4446;50.876;4.736;2022-08-23T11:12:23;27.70;99.90
8820;DHT22;4446;50.876;4.736;2022-08-23T11:17:56;28.00;99.90
8820;DHT22;4446;50.876;4.736;2022-08-23T11:20:58;28.10;99.90
8820;DHT22;4446;50.876;4.736;2022-08-23T11:23:42;28.00;99.90
8820;DHT22;4446;50.876;4.736;2022-08-23T11:27:00;27.80;99.90
8820;DHT22;4446;50.876;4.736;2022-08-23T11:29:26;27.80;99.90
8820;DHT22;4446;50.876;4.736;2022-08-23T11:31:59;27.80;99.90
8820;DHT22;4446;50.876;4.736;2022-08-23T11:34:30;27.70;99.90
8820;DHT22;4446;50.876;4.736;2022-08-23T11:37:29;27.90;99.90
8820;DHT22;4446;50.876;4.736;2022-08-23T11:40:07;28.00;99.90
8820;DHT22;4446;50.876;4.736;2022-08-23T11:42:48;27.90;99.90
8820;DHT22;4446;50.876;4.736;2022-08-23T11:45:27;27.80;99.90
8820;DHT22;4446;50.876;4.736;2022-08-23T11:48:15;27.90;99.90
8820;DHT22;4446;50.876;4.736;2022-08-23T11:50:56;28.10;99.90
8820;DHT22;4446;50.876;4.736;2022-08-23T11:53:39;28.10;99.90
8820;DHT22;4446;50.876;4.736;2022-08-23T11:56:26;27.90;99.90
8820;DHT22;4446;50.876;4.736;2022-08-23T11:59:08;27.80;99.90
8820;DHT22;4446;50.876;4.736;2022-08-23T12:01:40;27.80;99.90
8820;DHT22;4446;50.876;4.736;2022-08-23T12:04:10;27.80;99.90
8820;DHT22;4446;50.876;4.736;2022-08-23T12:06:45;27.90;99.90
8820;DHT22;4446;50.876;4.736;2022-08-23T12:09:51;28.10;99.90
8820;DHT22;4446;50.876;4.736;2022-08-23T12:12:37;28.10;99.90
8820;DHT22;4446;50.876;4.736;2022-08-23T12:15:05;28.10;99.90
8820;DHT22;4446;50.876;4.736;2022-08-23T12:17:54;28.20;99.90
8820;DHT22;4446;50.876;4.736;2022-08-23T12:20:28;28.50;99.90
8820;DHT22;4446;50.876;4.736;2022-08-23T12:23:00;28.60;99.90
8820;DHT22;4446;50.876;4.736;2022-08-23T12:25:34;28.70;99.90
8820;DHT22;4446;50.876;4.736;2022-08-23T12:28:09;29.00;99.90
8820;DHT22;4446;50.876;4.736;2022-08-23T12:30:54;29.40;99.90
8820;DHT22;4446;50.876;4.736;2022-08-23T12:33:31;29.50;99.90
8820;DHT22;4446;50.876;4.736;2022-08-23T12:36:06;29.40;99.90
8820;DHT22;4446;50.876;4.736;2022-08-23T12:38:40;29.20;99.90
8820;DHT22;4446;50.876;4.736;2022-08-23T12:41:18;28.80;99.90
8820;DHT22;4446;50.876;4.736;2022-08-23T12:43:58;28.60;99.90
8820;DHT22;4446;50.876;4.736;2022-08-23T12:46:31;28.50;99.90
8820;DHT22;4446;50.876;4.736;2022-08-23T12:48:58;28.50;99.90
8820;DHT22;4446;50.876;4.736;2022-08-23T12:51:25;28.40;99.90
8820;DHT22;4446;50.876;4.736;2022-08-23T12:53:52;28.40;99.90
8820;DHT22;4446;50.876;4.736;2022-08-23T12:56:24;28.40;99.90
8820;DHT22;4446;50.876;4.736;2022-08-23T12:58:55;28.40;99.90
8820;DHT22;4446;50.876;4.736;2022-08-23T13:01:25;28.70;99.90
8820;DHT22;4446;50.876;4.736;2022-08-23T13:03:56;28.80;99.90
8820;DHT22;4446;50.876;4.736;2022-08-23T13:06:27;28.80;99.90
8820;DHT22;4446;50.876;4.736;2022-08-23T13:09:03;28.90;99.90
8820;DHT22;4446;50.876;4.736;2022-08-23T13:11:34;29.30;99.90
8820;DHT22;4446;50.876;4.736;2022-08-23T13:14:23;29.50;99.90
8820;DHT22;4446;50.876;4.736;2022-08-23T13:16:51;29.80;99.90
8820;DHT22;4446;50.876;4.736;2022-08-23T13:19:23;30.10;99.90
8820;DHT22;4446;50.876;4.736;2022-08-23T13:22:09;30.30;99.90
8820;DHT22;4446;50.876;4.736;2022-08-23T13:24:38;30.20;99.90
8820;DHT22;4446;50.876;4.736;2022-08-23T13:27:16;30.30;99.90
8820;DHT22;4446;50.876;4.736;2022-08-23T13:29:52;30.50;99.90
8820;DHT22;4446;50.876;4.736;2022-08-23T13:32:26;30.60;99.90
8820;DHT22;4446;50.876;4.736;2022-08-23T13:34:54;30.60;99.90
8820;DHT22;4446;50.876;4.736;2022-08-23T13:37:44;30.70;99.90
8820;DHT22;4446;50.876;4.736;2022-08-23T13:40:21;30.70;99.90
8820;DHT22;4446;50.876;4.736;2022-08-23T13:42:52;30.80;99.90
8820;DHT22;4446;50.876;4.736;2022-08-23T13:45:24;30.80;99.90
8820;DHT22;4446;50.876;4.736;2022-08-23T13:47:55;30.70;99.90
8820;DHT22;4446;50.876;4.736;2022-08-23T13:50:25;30.80;99.90
8820;DHT22;4446;50.876;4.736;2022-08-23T13:52:57;30.60;99.90
8820;DHT22;4446;50.876;4.736;2022-08-23T13:55:24;31.00;99.90
8820;DHT22;4446;50.876;4.736;2022-08-23T13:57:52;31.40;99.90
8820;DHT22;4446;50.876;4.736;2022-08-23T14:00:20;31.70;99.90
8820;DHT22;4446;50.876;4.736;2022-08-23T14:02:47;31.50;99.90
8820;DHT22;4446;50.876;4.736;2022-08-23T14:05:17;32.30;99.90
8820;DHT22;4446;50.876;4.736;2022-08-23T14:07:46;32.90;99.90
8820;DHT22;4446;50.876;4.736;2022-08-23T14:10:20;33.70;99.90
8820;DHT22;4446;50.876;4.736;2022-08-23T14:12:50;34.30;99.60
8820;DHT22;4446;50.876;4.736;2022-08-23T14:15:18;34.00;99.10
8820;DHT22;4446;50.876;4.736;2022-08-23T14:17:48;33.50;99.20
8820;DHT22;4446;50.876;4.736;2022-08-23T14:20:17;33.90;99.20
8820;DHT22;4446;50.876;4.736;2022-08-23T14:22:44;34.60;98.50
8820;DHT22;4446;50.876;4.736;2022-08-23T14:25:12;34.90;97.50
8820;DHT22;4446;50.876;4.736;2022-08-23T14:27:43;34.90;97.10
8820;DHT22;4446;50.876;4.736;2022-08-23T14:30:21;35.00;97.00
8820;DHT22;4446;50.876;4.736;2022-08-23T14:32:48;34.90;95.90
8820;DHT22;4446;50.876;4.736;2022-08-23T14:35:15;34.80;95.90
8820;DHT22;4446;50.876;4.736;2022-08-23T14:37:43;34.80;96.50
8820;DHT22;4446;50.876;4.736;2022-08-23T14:40:10;35.10;95.50
8820;DHT22;4446;50.876;4.736;2022-08-23T14:42:37;34.70;95.80
8820;DHT22;4446;50.876;4.736;2022-08-23T14:45:07;34.50;96.00
8820;DHT22;4446;50.876;4.736;2022-08-23T14:47:34;34.90;96.30
8820;DHT22;4446;50.876;4.736;2022-08-23T14:50:01;35.40;95.10
8820;DHT22;4446;50.876;4.736;2022-08-23T14:52:28;35.90;94.60
8820;DHT22;4446;50.876;4.736;2022-08-23T14:54:55;35.50;94.30
8820;DHT22;4446;50.876;4.736;2022-08-23T14:57:22;35.20;94.30
8820;DHT22;4446;50.876;4.736;2022-08-23T14:59:49;34.90;94.50
8820;DHT22;4446;50.876;4.736;2022-08-23T15:02:22;34.90;93.40
8820;DHT22;4446;50.876;4.736;2022-08-23T15:04:50;34.30;93.90
8820;DHT22;4446;50.876;4.736;2022-08-23T15:07:17;34.20;94.20
8820;DHT22;4446;50.876;4.736;2022-08-23T15:09:44;34.40;94.20
8820;DHT22;4446;50.876;4.736;2022-08-23T15:12:11;34.30;94.00
8820;DHT22;4446;50.876;4.736;2022-08-23T15:14:38;34.10;94.30
8820;DHT22;4446;50.876;4.736;2022-08-23T15:17:05;34.60;94.30
8820;DHT22;4446;50.876;4.736;2022-08-23T15:19:34;35.20;93.90
8820;DHT22;4446;50.876;4.736;2022-08-23T15:22:02;35.50;93.20
8820;DHT22;4446;50.876;4.736;2022-08-23T15:24:29;35.50;93.30
8820;DHT22;4446;50.876;4.736;2022-08-23T15:26:58;35.60;93.10
8820;DHT22;4446;50.876;4.736;2022-08-23T15:29:28;36.00;92.30
8820;DHT22;4446;50.876;4.736;2022-08-23T15:31:55;35.90;92.30
8820;DHT22;4446;50.876;4.736;2022-08-23T15:34:22;35.90;92.60
8820;DHT22;4446;50.876;4.736;2022-08-23T15:36:51;36.10;92.10
8820;DHT22;4446;50.876;4.736;2022-08-23T15:39:18;36.10;91.80
8820;DHT22;4446;50.876;4.736;2022-08-23T15:41:45;35.20;92.40
8820;DHT22;4446;50.876;4.736;2022-08-23T15:44:12;35.20;92.20
8820;DHT22;4446;50.876;4.736;2022-08-23T15:46:39;34.90;92.30
8820;DHT22;4446;50.876;4.736;2022-08-23T15:49:12;34.80;92.60
8820;DHT22;4446;50.876;4.736;2022-08-23T15:51:39;34.70;92.60
8820;DHT22;4446;50.876;4.736;2022-08-23T15:54:08;34.50;92.80
8820;DHT22;4446;50.876;4.736;2022-08-23T15:56:39;34.20;92.80
8820;DHT22;4446;50.876;4.736;2022-08-23T15:59:09;34.20;93.10
8820;DHT22;4446;50.876;4.736;2022-08-23T16:01:37;34.00;93.20
8820;DHT22;4446;50.876;4.736;2022-08-23T16:04:04;34.20;93.60
8820;DHT22;4446;50.876;4.736;2022-08-23T16:06:32;34.60;92.70
8820;DHT22;4446;50.876;4.736;2022-08-23T16:09:00;34.20;92.30
8820;DHT22;4446;50.876;4.736;2022-08-23T16:11:29;34.10;92.90
8820;DHT22;4446;50.876;4.736;2022-08-23T16:13:57;34.30;92.70
8820;DHT22;4446;50.876;4.736;2022-08-23T16:16:25;34.10;92.30
8820;DHT22;4446;50.876;4.736;2022-08-23T16:18:54;33.60;93.10
8820;DHT22;4446;50.876;4.736;2022-08-23T16:21:23;33.70;92.70
8820;DHT22;4446;50.876;4.736;2022-08-23T16:23:52;33.80;92.40
8820;DHT22;4446;50.876;4.736;2022-08-23T16:26:21;33.70;92.40
8820;DHT22;4446;50.876;4.736;2022-08-23T16:28:53;33.40;93.20